sensor_id;sensor_type;location;lat;lon;timestamp;pressure;altitude;pressure_sealevel;temperature;humidity
65376;BME280;51976;47.332;9.404;2023-03-26T00:01:09;92350.72;;;8.79;79.22
65376;BME280;51976;47.332;9.404;2023-03-26T00:03:38;92299.78;;;9.17;68.40
65376;BME280;51976;47.332;9.404;2023-03-26T00:06:08;92251.00;;;8.23;66.24
65376;BME280;51976;47.332;9.404;2023-03-26T00:08:35;92349.13;;;9.55;76.49
65376;BME280;51976;47.332;9.404;2023-03-26T00:11:04;92335.06;;;8.87;68.60
65376;BME280;51976;47.332;9.404;2023-03-26T00:13:30;92323.25;;;8.20;63.35
65376;BME280;51976;47.332;9.404;2023-03-26T00:15:57;92274.50;;;6.09;67.59
65376;BME280;51976;47.332;9.404;2023-03-26T00:18:22;92340.34;;;6.56;68.55
65376;BME280;51976;47.332;9.404;2023-03-26T00:21:00;92334.25;;;7.79;82.03
65376;BME280;51976;47.332;9.404;2023-03-26T00:23:27;92329.13;;;8.61;81.02
65376;BME280;51976;47.332;9.404;2023-03-26T00:25:54;92328.78;;;9.87;82.29
65376;BME280;51976;47.332;9.404;2023-03-26T00:28:20;92321.34;;;10.54;81.80
65376;BME280;51976;47.332;9.404;2023-03-26T00:30:55;92304.91;;;10.69;79.99
65376;BME280;51976;47.332;9.404;2023-03-26T00:33:21;92317.13;;;10.80;77.84
65376;BME280;51976;47.332;9.404;2023-03-26T00:35:50;92317.47;;;10.92;77.75
65376;BME280;51976;47.332;9.404;2023-03-26T00:38:16;92311.16;;;10.97;77.28
65376;BME280;51976;47.332;9.404;2023-03-26T00:40:41;92305.50;;;11.12;78.93
65376;BME280;51976;47.332;9.404;2023-03-26T00:43:09;92304.50;;;11.08;73.88
65376;BME280;51976;47.332;9.404;2023-03-26T00:45:43;92313.06;;;10.96;73.29
65376;BME280;51976;47.332;9.404;2023-03-26T00:48:08;92277.97;;;10.69;73.23
65376;BME280;51976;47.332;9.404;2023-03-26T00:50:34;92303.28;;;10.87;73.26
65376;BME280;51976;47.332;9.404;2023-03-26T00:52:59;92305.09;;;11.05;71.17
65376;BME280;51976;47.332;9.404;2023-03-26T00:55:25;92297.03;;;11.32;72.19
65376;BME280;51976;47.332;9.404;2023-03-26T00:57:50;92293.59;;;11.54;68.12
65376;BME280;51976;47.332;9.404;2023-03-26T01:00:17;92264.81;;;11.49;68.39
65376;BME280;51976;47.332;9.404;2023-03-26T01:02:43;92295.91;;;11.61;67.25
65376;BME280;51976;47.332;9.404;2023-03-26T01:05:44;92297.34;;;10.01;58.89
65376;BME280;51976;47.332;9.404;2023-03-26T01:08:18;92297.28;;;9.26;62.09
65376;BME280;51976;47.332;9.404;2023-03-26T01:10:48;92290.06;;;8.73;67.77
65376;BME280;51976;47.332;9.404;2023-03-26T01:13:20;92288.44;;;8.09;64.83
65376;BME280;51976;47.332;9.404;2023-03-26T01:15:45;92297.50;;;8.19;63.55
65376;BME280;51976;47.332;9.404;2023-03-26T01:18:18;92284.00;;;7.51;64.01
65376;BME280;51976;47.332;9.404;2023-03-26T01:20:47;92303.59;;;7.41;64.38
65376;BME280;51976;47.332;9.404;2023-03-26T01:23:19;92299.91;;;7.37;64.66
65376;BME280;51976;47.332;9.404;2023-03-26T01:25:53;92298.34;;;7.70;75.12
65376;BME280;51976;47.332;9.404;2023-03-26T01:28:23;92288.78;;;9.37;81.26
65376;BME280;51976;47.332;9.404;2023-03-26T01:31:11;92285.69;;;9.68;75.27
65376;BME280;51976;47.332;9.404;2023-03-26T01:33:48;92273.44;;;9.80;77.47
65376;BME280;51976;47.332;9.404;2023-03-26T01:36:25;92267.38;;;10.07;77.99
65376;BME280;51976;47.332;9.404;2023-03-26T01:39:05;92275.88;;;10.33;76.71
65376;BME280;51976;47.332;9.404;2023-03-26T01:41:43;92271.44;;;10.05;73.66
65376;BME280;51976;47.332;9.404;2023-03-26T01:44:18;92275.88;;;9.77;77.25
65376;BME280;51976;47.332;9.404;2023-03-26T01:46:46;92269.97;;;10.31;77.46
65376;BME280;51976;47.332;9.404;2023-03-26T01:49:12;92275.25;;;10.55;76.05
65376;BME280;51976;47.332;9.404;2023-03-26T01:51:40;92266.22;;;10.92;72.88
65376;BME280;51976;47.332;9.404;2023-03-26T01:54:09;92231.56;;;10.99;72.30
65376;BME280;51976;47.332;9.404;2023-03-26T01:57:14;92255.16;;;11.21;72.52
65376;BME280;51976;47.332;9.404;2023-03-26T01:59:58;92252.47;;;10.47;62.66
65376;BME280;51976;47.332;9.404;2023-03-26T02:02:45;92245.59;;;9.85;64.30
65376;BME280;51976;47.332;9.404;2023-03-26T02:05:28;92242.44;;;8.50;62.13
65376;BME280;51976;47.332;9.404;2023-03-26T02:08:16;92239.16;;;8.82;65.04
65376;BME280;51976;47.332;9.404;2023-03-26T02:10:49;92230.66;;;8.17;64.66
65376;BME280;51976;47.332;9.404;2023-03-26T02:13:16;92237.50;;;7.65;64.80
65376;BME280;51976;47.332;9.404;2023-03-26T02:15:54;92224.44;;;7.09;66.88
65376;BME280;51976;47.332;9.404;2023-03-26T02:18:19;92213.00;;;6.89;66.98
65376;BME280;51976;47.332;9.404;2023-03-26T02:20:49;92194.47;;;6.97;66.88
65376;BME280;51976;47.332;9.404;2023-03-26T02:23:18;92190.72;;;6.98;67.02
65376;BME280;51976;47.332;9.404;2023-03-26T02:25:43;92186.44;;;6.92;66.69
65376;BME280;51976;47.332;9.404;2023-03-26T02:28:08;92171.63;;;7.83;73.60
65376;BME280;51976;47.332;9.404;2023-03-26T02:30:34;92174.41;;;8.31;72.30
65376;BME280;51976;47.332;9.404;2023-03-26T02:32:59;92169.56;;;8.04;65.34
65376;BME280;51976;47.332;9.404;2023-03-26T02:35:25;92166.56;;;7.03;65.56
65376;BME280;51976;47.332;9.404;2023-03-26T02:37:50;92170.78;;;7.14;66.30
65376;BME280;51976;47.332;9.404;2023-03-26T02:40:17;92162.44;;;7.21;68.25
65376;BME280;51976;47.332;9.404;2023-03-26T02:42:43;92144.09;;;6.94;66.49
65376;BME280;51976;47.332;9.404;2023-03-26T02:45:09;92119.56;;;6.77;67.00
65376;BME280;51976;47.332;9.404;2023-03-26T02:47:35;92148.34;;;7.05;67.95
65376;BME280;51976;47.332;9.404;2023-03-26T02:50:00;92132.13;;;6.82;68.00
65376;BME280;51976;47.332;9.404;2023-03-26T02:52:27;92123.47;;;6.45;68.59
65376;BME280;51976;47.332;9.404;2023-03-26T02:54:53;92132.19;;;6.71;69.60
65376;BME280;51976;47.332;9.404;2023-03-26T02:57:19;92128.50;;;8.27;80.26
65376;BME280;51976;47.332;9.404;2023-03-26T02:59:45;92089.47;;;7.29;66.83
65376;BME280;51976;47.332;9.404;2023-03-26T03:02:10;92107.59;;;7.08;66.97
65376;BME280;51976;47.332;9.404;2023-03-26T03:04:37;92105.13;;;7.46;78.09
65376;BME280;51976;47.332;9.404;2023-03-26T03:07:03;92103.75;;;7.82;66.71
65376;BME280;51976;47.332;9.404;2023-03-26T03:09:28;92095.09;;;7.28;69.39
65376;BME280;51976;47.332;9.404;2023-03-26T03:11:54;92087.34;;;8.37;80.12
65376;BME280;51976;47.332;9.404;2023-03-26T03:14:20;92087.50;;;9.07;77.40
65376;BME280;51976;47.332;9.404;2023-03-26T03:16:45;92087.31;;;9.36;75.55
65376;BME280;51976;47.332;9.404;2023-03-26T03:19:11;92083.47;;;9.74;73.81
65376;BME280;51976;47.332;9.404;2023-03-26T03:21:37;92058.09;;;9.80;73.13
65376;BME280;51976;47.332;9.404;2023-03-26T03:24:03;92063.22;;;8.56;62.27
65376;BME280;51976;47.332;9.404;2023-03-26T03:26:29;92065.28;;;7.92;63.56
65376;BME280;51976;47.332;9.404;2023-03-26T03:28:56;92052.19;;;6.99;65.13
65376;BME280;51976;47.332;9.404;2023-03-26T03:31:22;92011.38;;;6.73;65.44
65376;BME280;51976;47.332;9.404;2023-03-26T03:33:49;92040.03;;;6.72;65.49
65376;BME280;51976;47.332;9.404;2023-03-26T03:36:16;92044.63;;;6.67;65.52
65376;BME280;51976;47.332;9.404;2023-03-26T03:38:47;92026.69;;;6.62;65.93
65376;BME280;51976;47.332;9.404;2023-03-26T03:41:13;92039.00;;;6.68;66.08
65376;BME280;51976;47.332;9.404;2023-03-26T03:43:38;92026.41;;;6.69;66.37
65376;BME280;51976;47.332;9.404;2023-03-26T03:46:04;92039.78;;;6.69;66.68
65376;BME280;51976;47.332;9.404;2023-03-26T03:48:29;92014.75;;;6.50;67.12
65376;BME280;51976;47.332;9.404;2023-03-26T03:50:55;92032.56;;;6.69;67.27
65376;BME280;51976;47.332;9.404;2023-03-26T03:53:22;92022.38;;;6.71;67.21
65376;BME280;51976;47.332;9.404;2023-03-26T03:55:52;92019.97;;;6.70;67.29
65376;BME280;51976;47.332;9.404;2023-03-26T03:58:19;92018.91;;;6.66;67.79
65376;BME280;51976;47.332;9.404;2023-03-26T04:00:50;92002.97;;;6.51;67.77
65376;BME280;51976;47.332;9.404;2023-03-26T04:03:16;92019.44;;;6.68;67.61
65376;BME280;51976;47.332;9.404;2023-03-26T04:05:43;92016.53;;;6.59;68.02
65376;BME280;51976;47.332;9.404;2023-03-26T04:08:14;92012.94;;;6.35;67.81
65376;BME280;51976;47.332;9.404;2023-03-26T04:10:41;91990.41;;;6.46;67.50
65376;BME280;51976;47.332;9.404;2023-03-26T04:13:08;91951.66;;;5.79;67.86
65376;BME280;51976;47.332;9.404;2023-03-26T04:15:33;91999.78;;;6.43;67.15
65376;BME280;51976;47.332;9.404;2023-03-26T04:18:00;92007.16;;;6.62;66.95
65376;BME280;51976;47.332;9.404;2023-03-26T04:20:25;92016.41;;;6.40;67.14
65376;BME280;51976;47.332;9.404;2023-03-26T04:22:51;92011.03;;;6.45;67.52
65376;BME280;51976;47.332;9.404;2023-03-26T04:25:17;92003.50;;;6.53;67.66
65376;BME280;51976;47.332;9.404;2023-03-26T04:27:42;91993.41;;;6.34;67.62
65376;BME280;51976;47.332;9.404;2023-03-26T04:30:11;92008.78;;;6.58;67.80
65376;BME280;51976;47.332;9.404;2023-03-26T04:32:39;92002.63;;;6.57;67.32
65376;BME280;51976;47.332;9.404;2023-03-26T04:35:07;91966.22;;;6.17;66.76
65376;BME280;51976;47.332;9.404;2023-03-26T04:37:37;92005.63;;;6.56;66.05
65376;BME280;51976;47.332;9.404;2023-03-26T04:40:06;92013.31;;;6.62;66.22
65376;BME280;51976;47.332;9.404;2023-03-26T04:42:34;92011.63;;;6.76;66.05
65376;BME280;51976;47.332;9.404;2023-03-26T04:44:59;92006.00;;;6.78;66.04
65376;BME280;51976;47.332;9.404;2023-03-26T04:47:27;92012.31;;;6.53;66.99
65376;BME280;51976;47.332;9.404;2023-03-26T04:49:53;92011.53;;;6.53;67.22
65376;BME280;51976;47.332;9.404;2023-03-26T04:52:18;92012.25;;;6.19;68.24
65376;BME280;51976;47.332;9.404;2023-03-26T04:54:44;92001.66;;;5.94;69.37
65376;BME280;51976;47.332;9.404;2023-03-26T04:57:22;91992.59;;;5.90;69.30
65376;BME280;51976;47.332;9.404;2023-03-26T04:59:51;91981.59;;;5.86;69.67
65376;BME280;51976;47.332;9.404;2023-03-26T05:02:16;91953.34;;;5.65;70.42
65376;BME280;51976;47.332;9.404;2023-03-26T05:04:42;91961.16;;;6.16;69.30
65376;BME280;51976;47.332;9.404;2023-03-26T05:07:10;91958.59;;;5.85;69.24
65376;BME280;51976;47.332;9.404;2023-03-26T05:09:40;91945.78;;;5.77;70.06
65376;BME280;51976;47.332;9.404;2023-03-26T05:12:05;91926.25;;;5.82;70.31
65376;BME280;51976;47.332;9.404;2023-03-26T05:14:30;91914.03;;;5.70;70.40
65376;BME280;51976;47.332;9.404;2023-03-26T05:16:56;91886.06;;;5.42;71.79
65376;BME280;51976;47.332;9.404;2023-03-26T05:19:21;91890.00;;;5.55;72.04
65376;BME280;51976;47.332;9.404;2023-03-26T05:21:47;91876.59;;;5.65;71.31
65376;BME280;51976;47.332;9.404;2023-03-26T05:24:12;91880.22;;;5.85;71.29
65376;BME280;51976;47.332;9.404;2023-03-26T05:26:37;91870.75;;;6.07;70.53
65376;BME280;51976;47.332;9.404;2023-03-26T05:29:03;91857.19;;;5.99;70.18
65376;BME280;51976;47.332;9.404;2023-03-26T05:31:29;91849.06;;;6.09;69.90
65376;BME280;51976;47.332;9.404;2023-03-26T05:33:56;91855.25;;;6.04;69.78
65376;BME280;51976;47.332;9.404;2023-03-26T05:36:22;91835.69;;;5.70;70.77
65376;BME280;51976;47.332;9.404;2023-03-26T05:38:47;91805.00;;;6.01;69.71
65376;BME280;51976;47.332;9.404;2023-03-26T05:41:14;91825.22;;;5.73;69.58
65376;BME280;51976;47.332;9.404;2023-03-26T05:43:40;91832.81;;;5.56;71.15
65376;BME280;51976;47.332;9.404;2023-03-26T05:46:06;91806.16;;;5.90;69.88
65376;BME280;51976;47.332;9.404;2023-03-26T05:48:32;91806.47;;;6.18;67.73
65376;BME280;51976;47.332;9.404;2023-03-26T05:50:57;91775.34;;;6.27;67.46
65376;BME280;51976;47.332;9.404;2023-03-26T05:53:25;91794.25;;;6.06;68.55
65376;BME280;51976;47.332;9.404;2023-03-26T05:55:50;91794.34;;;5.96;69.25
65376;BME280;51976;47.332;9.404;2023-03-26T05:58:27;91786.09;;;5.83;68.82
65376;BME280;51976;47.332;9.404;2023-03-26T06:01:03;91802.19;;;6.17;66.04
65376;BME280;51976;47.332;9.404;2023-03-26T06:03:30;91796.25;;;6.25;65.17
65376;BME280;51976;47.332;9.404;2023-03-26T06:05:56;91801.44;;;6.11;65.23
65376;BME280;51976;47.332;9.404;2023-03-26T06:08:21;91801.28;;;5.97;65.86
65376;BME280;51976;47.332;9.404;2023-03-26T06:10:47;91809.50;;;6.06;67.58
65376;BME280;51976;47.332;9.404;2023-03-26T06:13:13;91805.97;;;6.10;67.38
65376;BME280;51976;47.332;9.404;2023-03-26T06:15:40;91808.34;;;6.17;67.72
65376;BME280;51976;47.332;9.404;2023-03-26T06:18:06;91805.28;;;6.00;67.81
65376;BME280;51976;47.332;9.404;2023-03-26T06:20:31;91815.22;;;6.28;67.51
65376;BME280;51976;47.332;9.404;2023-03-26T06:22:57;91813.47;;;6.42;66.97
65376;BME280;51976;47.332;9.404;2023-03-26T06:25:22;91781.44;;;6.32;66.29
65376;BME280;51976;47.332;9.404;2023-03-26T06:27:47;91833.19;;;6.23;67.22
65376;BME280;51976;47.332;9.404;2023-03-26T06:30:13;91845.81;;;6.17;67.64
65376;BME280;51976;47.332;9.404;2023-03-26T06:32:38;91854.44;;;6.04;68.29
65376;BME280;51976;47.332;9.404;2023-03-26T06:35:05;91855.63;;;5.88;69.52
65376;BME280;51976;47.332;9.404;2023-03-26T06:37:30;91847.50;;;6.03;68.67
65376;BME280;51976;47.332;9.404;2023-03-26T06:39:55;91864.97;;;6.29;67.19
65376;BME280;51976;47.332;9.404;2023-03-26T06:42:21;91864.94;;;6.34;66.67
65376;BME280;51976;47.332;9.404;2023-03-26T06:44:46;91846.59;;;6.52;66.55
65376;BME280;51976;47.332;9.404;2023-03-26T06:47:11;91841.31;;;6.41;67.40
65376;BME280;51976;47.332;9.404;2023-03-26T06:49:37;91813.38;;;6.53;67.27
65376;BME280;51976;47.332;9.404;2023-03-26T06:52:03;91800.31;;;6.17;68.46
65376;BME280;51976;47.332;9.404;2023-03-26T06:54:29;91782.66;;;6.16;69.26
65376;BME280;51976;47.332;9.404;2023-03-26T06:56:55;91756.91;;;6.25;68.62
65376;BME280;51976;47.332;9.404;2023-03-26T06:59:21;91787.75;;;6.47;68.41
65376;BME280;51976;47.332;9.404;2023-03-26T07:01:46;91763.38;;;6.19;68.28
65376;BME280;51976;47.332;9.404;2023-03-26T07:04:12;91778.34;;;6.49;67.51
65376;BME280;51976;47.332;9.404;2023-03-26T07:06:38;91778.41;;;6.68;67.03
65376;BME280;51976;47.332;9.404;2023-03-26T07:09:03;91770.38;;;6.68;67.51
65376;BME280;51976;47.332;9.404;2023-03-26T07:11:28;91770.88;;;6.46;67.14
65376;BME280;51976;47.332;9.404;2023-03-26T07:13:54;91731.06;;;6.39;67.13
65376;BME280;51976;47.332;9.404;2023-03-26T07:16:20;91742.44;;;6.26;67.00
65376;BME280;51976;47.332;9.404;2023-03-26T07:18:46;91694.13;;;6.13;67.05
65376;BME280;51976;47.332;9.404;2023-03-26T07:21:12;91741.38;;;6.75;66.80
65376;BME280;51976;47.332;9.404;2023-03-26T07:23:38;91738.34;;;6.58;67.20
65376;BME280;51976;47.332;9.404;2023-03-26T07:26:22;91735.28;;;6.69;67.34
65376;BME280;51976;47.332;9.404;2023-03-26T07:28:55;91763.00;;;6.84;67.24
65376;BME280;51976;47.332;9.404;2023-03-26T07:31:43;91772.91;;;6.83;67.58
65376;BME280;51976;47.332;9.404;2023-03-26T07:37:25;91787.25;;;6.68;68.73
65376;BME280;51976;47.332;9.404;2023-03-26T07:40:03;91794.25;;;6.88;68.95
65376;BME280;51976;47.332;9.404;2023-03-26T07:43:10;91785.69;;;6.86;69.25
65376;BME280;51976;47.332;9.404;2023-03-26T07:45:42;91781.16;;;6.87;69.17
65376;BME280;51976;47.332;9.404;2023-03-26T07:48:15;91782.38;;;6.47;70.46
65376;BME280;51976;47.332;9.404;2023-03-26T07:50:42;91796.16;;;6.59;70.51
65376;BME280;51976;47.332;9.404;2023-03-26T07:53:08;91782.78;;;6.59;69.97
65376;BME280;51976;47.332;9.404;2023-03-26T07:55:37;91803.59;;;6.67;70.04
65376;BME280;51976;47.332;9.404;2023-03-26T07:58:43;91802.97;;;6.75;69.35
65376;BME280;51976;47.332;9.404;2023-03-26T08:01:18;91806.22;;;6.72;69.30
65376;BME280;51976;47.332;9.404;2023-03-26T08:04:18;91799.78;;;6.73;70.51
65376;BME280;51976;47.332;9.404;2023-03-26T08:06:55;91802.41;;;6.78;70.22
65376;BME280;51976;47.332;9.404;2023-03-26T08:09:55;91800.97;;;6.62;70.92
65376;BME280;51976;47.332;9.404;2023-03-26T08:15:38;91774.44;;;6.36;71.16
65376;BME280;51976;47.332;9.404;2023-03-26T08:18:45;91782.09;;;6.48;71.08
65376;BME280;51976;47.332;9.404;2023-03-26T08:21:25;91766.34;;;6.70;71.35
65376;BME280;51976;47.332;9.404;2023-03-26T08:24:07;91756.66;;;6.74;71.97
65376;BME280;51976;47.332;9.404;2023-03-26T08:27:05;91751.44;;;6.59;73.24
65376;BME280;51976;47.332;9.404;2023-03-26T08:29:43;91770.38;;;6.15;75.15
65376;BME280;51976;47.332;9.404;2023-03-26T08:32:16;91739.03;;;5.82;76.05
65376;BME280;51976;47.332;9.404;2023-03-26T08:34:42;91737.13;;;5.87;76.32
65376;BME280;51976;47.332;9.404;2023-03-26T08:37:08;91762.69;;;6.32;75.15
65376;BME280;51976;47.332;9.404;2023-03-26T08:39:37;91759.56;;;6.25;74.73
65376;BME280;51976;47.332;9.404;2023-03-26T08:42:38;91744.03;;;6.27;74.54
65376;BME280;51976;47.332;9.404;2023-03-26T08:45:47;91748.06;;;6.54;73.81
65376;BME280;51976;47.332;9.404;2023-03-26T08:48:32;91695.22;;;6.35;73.25
65376;BME280;51976;47.332;9.404;2023-03-26T08:51:25;91706.72;;;6.60;73.95
65376;BME280;51976;47.332;9.404;2023-03-26T08:54:13;91743.09;;;6.66;74.37
65376;BME280;51976;47.332;9.404;2023-03-26T08:57:27;91743.41;;;6.59;73.95
65376;BME280;51976;47.332;9.404;2023-03-26T09:00:27;91749.47;;;7.36;80.37
65376;BME280;51976;47.332;9.404;2023-03-26T09:03:24;91727.06;;;7.46;78.24
65376;BME280;51976;47.332;9.404;2023-03-26T09:06:20;91726.78;;;7.29;71.89
65376;BME280;51976;47.332;9.404;2023-03-26T09:09:13;91717.88;;;6.91;73.65
65376;BME280;51976;47.332;9.404;2023-03-26T09:12:06;91689.75;;;7.31;71.57
65376;BME280;51976;47.332;9.404;2023-03-26T09:15:09;91698.47;;;8.39;74.54
65376;BME280;51976;47.332;9.404;2023-03-26T09:21:11;91699.31;;;8.67;76.71
65376;BME280;51976;47.332;9.404;2023-03-26T09:24:08;91726.09;;;9.49;73.45
65376;BME280;51976;47.332;9.404;2023-03-26T09:26:45;91732.78;;;9.38;63.54
65376;BME280;51976;47.332;9.404;2023-03-26T09:29:44;91739.78;;;9.11;64.48
65376;BME280;51976;47.332;9.404;2023-03-26T09:32:28;91726.78;;;9.91;66.69
65376;BME280;51976;47.332;9.404;2023-03-26T09:35:44;91700.06;;;9.08;63.42
65376;BME280;51976;47.332;9.404;2023-03-26T09:38:00;91716.28;;;9.67;60.82
65376;BME280;51976;47.332;9.404;2023-03-26T09:40:49;91706.22;;;9.95;64.02
65376;BME280;51976;47.332;9.404;2023-03-26T09:55:12;91689.28;;;9.94;65.24
65376;BME280;51976;47.332;9.404;2023-03-26T09:58:13;91672.13;;;10.66;63.63
65376;BME280;51976;47.332;9.404;2023-03-26T10:01:26;91680.34;;;10.61;62.63
65376;BME280;51976;47.332;9.404;2023-03-26T10:07:22;91692.56;;;10.67;53.87
65376;BME280;51976;47.332;9.404;2023-03-26T10:10:21;91698.72;;;10.28;58.16
65376;BME280;51976;47.332;9.404;2023-03-26T10:12:50;91711.41;;;10.89;55.13
65376;BME280;51976;47.332;9.404;2023-03-26T10:15:34;91725.31;;;10.51;53.43
65376;BME280;51976;47.332;9.404;2023-03-26T10:18:26;91749.25;;;10.53;54.92
65376;BME280;51976;47.332;9.404;2023-03-26T10:27:35;91765.41;;;8.35;61.69
65376;BME280;51976;47.332;9.404;2023-03-26T10:30:14;91780.03;;;7.92;63.01
65376;BME280;51976;47.332;9.404;2023-03-26T10:33:04;91771.00;;;8.39;66.67
65376;BME280;51976;47.332;9.404;2023-03-26T10:35:42;91764.13;;;7.95;64.96
65376;BME280;51976;47.332;9.404;2023-03-26T10:41:18;91786.78;;;7.89;64.93
65376;BME280;51976;47.332;9.404;2023-03-26T10:44:23;91797.25;;;8.23;65.70
65376;BME280;51976;47.332;9.404;2023-03-26T10:47:04;91798.22;;;8.32;64.54
65376;BME280;51976;47.332;9.404;2023-03-26T10:49:43;91787.06;;;8.71;64.20
65376;BME280;51976;47.332;9.404;2023-03-26T10:52:24;91787.38;;;7.86;65.79
65376;BME280;51976;47.332;9.404;2023-03-26T10:55:15;91791.13;;;7.47;67.22
65376;BME280;51976;47.332;9.404;2023-03-26T10:57:53;91790.25;;;7.52;68.02
65376;BME280;51976;47.332;9.404;2023-03-26T11:00:23;91790.75;;;7.35;68.13
65376;BME280;51976;47.332;9.404;2023-03-26T11:03:08;91807.13;;;7.34;68.46
65376;BME280;51976;47.332;9.404;2023-03-26T11:05:40;91823.09;;;7.20;68.93
65376;BME280;51976;47.332;9.404;2023-03-26T11:08:21;91797.22;;;7.10;68.40
65376;BME280;51976;47.332;9.404;2023-03-26T11:11:01;91779.88;;;7.27;67.56
65376;BME280;51976;47.332;9.404;2023-03-26T11:13:48;91794.31;;;7.50;67.78
65376;BME280;51976;47.332;9.404;2023-03-26T11:16:24;91795.97;;;7.45;68.19
65376;BME280;51976;47.332;9.404;2023-03-26T11:19:15;91753.56;;;7.29;67.78
65376;BME280;51976;47.332;9.404;2023-03-26T11:28:50;91721.00;;;7.92;66.76
65376;BME280;51976;47.332;9.404;2023-03-26T11:31:14;91723.47;;;7.69;66.83
65376;BME280;51976;47.332;9.404;2023-03-26T11:33:46;91748.81;;;7.63;67.81
65376;BME280;51976;47.332;9.404;2023-03-26T11:36:16;91740.25;;;7.61;67.87
65376;BME280;51976;47.332;9.404;2023-03-26T11:38:46;91733.06;;;7.57;67.16
65376;BME280;51976;47.332;9.404;2023-03-26T11:41:15;91732.03;;;7.71;67.06
65376;BME280;51976;47.332;9.404;2023-03-26T11:43:44;91745.25;;;7.87;65.81
65376;BME280;51976;47.332;9.404;2023-03-26T11:46:17;91722.78;;;7.96;59.80
65376;BME280;51976;47.332;9.404;2023-03-26T11:48:47;91715.88;;;8.09;55.07
65376;BME280;51976;47.332;9.404;2023-03-26T11:51:29;91713.50;;;8.21;54.86
65376;BME280;51976;47.332;9.404;2023-03-26T11:53:57;91705.66;;;8.11;54.88
65376;BME280;51976;47.332;9.404;2023-03-26T11:56:30;91687.16;;;8.23;55.75
65376;BME280;51976;47.332;9.404;2023-03-26T11:59:02;91685.19;;;8.29;55.72
65376;BME280;51976;47.332;9.404;2023-03-26T12:01:57;91684.25;;;8.38;54.23
65376;BME280;51976;47.332;9.404;2023-03-26T12:04:39;91680.97;;;8.55;53.18
65376;BME280;51976;47.332;9.404;2023-03-26T12:07:31;91684.56;;;8.64;53.18
65376;BME280;51976;47.332;9.404;2023-03-26T12:09:59;91681.19;;;8.59;53.43
65376;BME280;51976;47.332;9.404;2023-03-26T12:12:33;91638.41;;;8.48;52.43
65376;BME280;51976;47.332;9.404;2023-03-26T12:15:00;91644.47;;;8.68;53.02
65376;BME280;51976;47.332;9.404;2023-03-26T12:17:30;91649.75;;;8.73;52.59
65376;BME280;51976;47.332;9.404;2023-03-26T12:19:57;91645.47;;;8.72;53.25
65376;BME280;51976;47.332;9.404;2023-03-26T12:22:32;91627.47;;;8.59;54.51
65376;BME280;51976;47.332;9.404;2023-03-26T12:25:23;91646.25;;;8.59;54.21
65376;BME280;51976;47.332;9.404;2023-03-26T12:27:56;91641.78;;;8.68;54.59
65376;BME280;51976;47.332;9.404;2023-03-26T12:30:28;91645.25;;;8.82;54.97
65376;BME280;51976;47.332;9.404;2023-03-26T12:33:05;91640.16;;;8.80;54.53
65376;BME280;51976;47.332;9.404;2023-03-26T12:35:33;91637.25;;;9.04;53.97
65376;BME280;51976;47.332;9.404;2023-03-26T12:38:20;91632.94;;;9.17;54.53
65376;BME280;51976;47.332;9.404;2023-03-26T12:40:47;91629.66;;;9.20;54.47
65376;BME280;51976;47.332;9.404;2023-03-26T12:43:28;91614.34;;;9.07;54.70
65376;BME280;51976;47.332;9.404;2023-03-26T12:45:56;91641.31;;;9.15;55.53
65376;BME280;51976;47.332;9.404;2023-03-26T12:48:23;91634.25;;;9.20;54.70
65376;BME280;51976;47.332;9.404;2023-03-26T12:54:18;91593.38;;;8.95;53.76
65376;BME280;51976;47.332;9.404;2023-03-26T12:57:00;91624.16;;;8.89;53.80
65376;BME280;51976;47.332;9.404;2023-03-26T12:59:52;91607.56;;;9.09;53.51
65376;BME280;51976;47.332;9.404;2023-03-26T13:02:53;91614.03;;;9.08;53.84
65376;BME280;51976;47.332;9.404;2023-03-26T13:05:53;91605.47;;;9.20;53.33
65376;BME280;51976;47.332;9.404;2023-03-26T13:11:48;91605.53;;;8.93;52.89
65376;BME280;51976;47.332;9.404;2023-03-26T13:14:42;91598.75;;;8.95;53.33
65376;BME280;51976;47.332;9.404;2023-03-26T13:17:28;91598.31;;;9.38;52.92
65376;BME280;51976;47.332;9.404;2023-03-26T13:20:07;91588.72;;;9.45;52.57
65376;BME280;51976;47.332;9.404;2023-03-26T13:22:59;91582.56;;;9.45;53.05
65376;BME280;51976;47.332;9.404;2023-03-26T13:25:41;91570.88;;;9.27;51.35
65376;BME280;51976;47.332;9.404;2023-03-26T13:28:26;91562.25;;;9.61;52.06
65376;BME280;51976;47.332;9.404;2023-03-26T13:31:16;91545.38;;;9.47;51.43
65376;BME280;51976;47.332;9.404;2023-03-26T13:33:59;91561.00;;;9.67;51.70
65376;BME280;51976;47.332;9.404;2023-03-26T13:37:11;91565.59;;;9.67;50.51
65376;BME280;51976;47.332;9.404;2023-03-26T13:39:40;91556.91;;;9.70;49.54
65376;BME280;51976;47.332;9.404;2023-03-26T13:42:24;91550.25;;;9.67;49.44
65376;BME280;51976;47.332;9.404;2023-03-26T13:47:48;91528.47;;;9.77;49.33
65376;BME280;51976;47.332;9.404;2023-03-26T13:50:26;91543.66;;;9.73;50.20
65376;BME280;51976;47.332;9.404;2023-03-26T13:53:00;91534.84;;;9.81;50.27
65376;BME280;51976;47.332;9.404;2023-03-26T13:55:32;91524.94;;;9.68;50.92
65376;BME280;51976;47.332;9.404;2023-03-26T13:58:05;91520.00;;;9.93;50.48
65376;BME280;51976;47.332;9.404;2023-03-26T14:01:13;91528.47;;;9.77;50.02
65376;BME280;51976;47.332;9.404;2023-03-26T14:03:57;91510.91;;;9.80;49.72
65376;BME280;51976;47.332;9.404;2023-03-26T14:09:37;91495.75;;;9.93;49.04
65376;BME280;51976;47.332;9.404;2023-03-26T14:12:30;91475.34;;;9.61;48.22
65376;BME280;51976;47.332;9.404;2023-03-26T14:15:01;91489.88;;;9.82;47.85
65376;BME280;51976;47.332;9.404;2023-03-26T14:17:38;91481.25;;;10.02;46.61
65376;BME280;51976;47.332;9.404;2023-03-26T14:20:42;91462.53;;;9.97;46.73
65376;BME280;51976;47.332;9.404;2023-03-26T14:23:37;91436.75;;;10.05;46.61
65376;BME280;51976;47.332;9.404;2023-03-26T14:26:36;91463.94;;;10.34;45.79
65376;BME280;51976;47.332;9.404;2023-03-26T14:29:17;91454.66;;;10.09;46.04
65376;BME280;51976;47.332;9.404;2023-03-26T14:32:28;91459.97;;;10.40;45.02
65376;BME280;51976;47.332;9.404;2023-03-26T14:35:05;91473.94;;;10.51;44.19
65376;BME280;51976;47.332;9.404;2023-03-26T14:37:46;91475.34;;;10.40;44.62
65376;BME280;51976;47.332;9.404;2023-03-26T14:40:55;91489.63;;;10.49;44.97
65376;BME280;51976;47.332;9.404;2023-03-26T14:46:36;91483.09;;;10.41;44.33